createdAt,value
2019-04-01T00:01:55.374Z,8.04
2019-04-01T00:06:57.453Z,8.05
2019-04-01T00:11:59.541Z,7.83
2019-04-01T00:17:01.623Z,7.99
2019-04-01T00:22:03.749Z,7.97
2019-04-01T00:27:05.810Z,7.97
2019-04-01T00:32:07.868Z,7.83
2019-04-01T00:37:09.996Z,7.71
2019-04-01T00:42:32.247Z,7.81
2019-04-01T00:47:34.297Z,7.87
2019-04-01T00:52:36.313Z,7.72
2019-04-01T00:57:38.413Z,7.69
2019-04-01T01:02:40.459Z,7.63
2019-04-01T01:07:42.537Z,7.51
2019-04-01T01:12:44.663Z,7.51
2019-04-01T01:17:46.740Z,7.55
2019-04-01T01:22:48.919Z,7.43
2019-04-01T01:27:51.087Z,7.27
2019-04-01T01:32:53.175Z,7.46
2019-04-01T01:37:55.234Z,7.14
2019-04-01T01:42:57.317Z,7.30
2019-04-01T01:47:59.362Z,7.13
2019-04-01T01:53:01.604Z,7.02
2019-04-01T01:58:03.799Z,6.99
2019-04-01T02:03:05.914Z,7.13
2019-04-01T02:08:07.977Z,6.90
2019-04-01T02:13:10.039Z,7.00
2019-04-01T02:18:12.186Z,6.87
2019-04-01T02:23:14.382Z,6.98
2019-04-01T02:28:16.432Z,6.81
2019-04-01T02:33:18.521Z,6.79
2019-04-01T02:38:20.627Z,6.71
2019-04-01T02:43:22.687Z,6.74
2019-04-01T02:48:24.729Z,6.71
2019-04-01T02:53:26.824Z,6.70
2019-04-01T02:58:28.854Z,6.55
2019-04-01T03:03:30.914Z,6.43
2019-04-01T03:08:33.051Z,6.67
2019-04-01T03:13:35.123Z,6.48
2019-04-01T03:18:37.249Z,6.53
2019-04-01T03:23:39.319Z,6.36
2019-04-01T03:28:41.432Z,6.39
2019-04-01T03:33:43.467Z,6.23
2019-04-01T03:38:45.525Z,6.22
2019-04-01T03:43:47.607Z,6.30
2019-04-01T03:48:49.668Z,6.17
2019-04-01T03:53:51.717Z,6.25
2019-04-01T03:58:53.769Z,6.07
2019-04-01T04:03:55.848Z,6.20
2019-04-01T04:09:01.831Z,6.08
2019-04-01T04:14:01.966Z,6.00
2019-04-01T04:19:04.111Z,5.98
2019-04-01T04:24:06.505Z,6.06
2019-04-01T04:29:08.671Z,5.95
2019-04-01T04:34:10.719Z,5.92
2019-04-01T04:39:12.802Z,5.88
2019-04-01T04:44:14.843Z,5.76
2019-04-01T04:49:16.881Z,5.71
2019-04-01T04:54:18.922Z,5.83
2019-04-01T04:59:21.013Z,5.58
2019-04-01T05:04:23.083Z,5.61
2019-04-01T05:09:25.150Z,5.70
2019-04-01T05:14:27.292Z,5.75
2019-04-01T05:19:29.305Z,5.65
2019-04-01T05:24:31.363Z,5.62
2019-04-01T05:29:34.393Z,5.62
2019-04-01T05:34:38.653Z,5.60
2019-04-01T05:39:40.846Z,5.62
2019-04-01T05:44:42.922Z,5.69
2019-04-01T05:49:45.026Z,5.55
2019-04-01T05:54:47.085Z,5.65
2019-04-01T05:59:49.172Z,5.74
2019-04-01T06:04:51.336Z,5.75
2019-04-01T06:09:53.358Z,5.83
2019-04-01T06:14:56.100Z,5.88
2019-04-01T06:19:58.599Z,5.95
2019-04-01T06:25:00.680Z,5.96
2019-04-01T06:30:03.238Z,5.89
2019-04-01T06:35:06.523Z,6.35
2019-04-01T06:40:09.093Z,6.40
2019-04-01T06:45:11.759Z,6.37
2019-04-01T06:50:13.845Z,6.41
2019-04-01T06:55:15.900Z,6.64
2019-04-01T07:00:18.079Z,6.60
2019-04-01T07:05:20.178Z,6.69
2019-04-01T07:10:24.844Z,7.07
2019-04-01T07:15:26.255Z,7.18
2019-04-01T07:20:28.317Z,7.24
2019-04-01T07:25:33.925Z,7.38
2019-04-01T07:30:34.655Z,7.55
2019-04-01T07:35:36.718Z,7.40
2019-04-01T07:40:38.841Z,7.75
2019-04-01T07:45:40.956Z,7.90
2019-04-01T07:50:43.056Z,7.93
2019-04-01T07:55:45.196Z,8.12
2019-04-01T08:00:47.252Z,8.13
2019-04-01T08:05:49.330Z,8.23
2019-04-01T08:10:51.386Z,8.34
2019-04-01T08:15:53.437Z,8.51
2019-04-01T08:20:55.519Z,8.64
2019-04-01T08:25:57.608Z,8.65
2019-04-01T08:30:59.749Z,8.75
2019-04-01T08:36:01.874Z,8.80
2019-04-01T08:41:04.028Z,8.86
2019-04-01T08:46:06.099Z,9.11
2019-04-01T08:51:08.620Z,9.27
2019-04-01T08:56:10.697Z,9.31
2019-04-01T09:01:12.885Z,9.46
2019-04-01T09:06:14.940Z,9.46
2019-04-01T09:11:17.514Z,9.57
2019-04-01T09:16:19.852Z,9.73
2019-04-01T09:21:22.065Z,10.08
2019-04-01T09:26:24.485Z,10.08
2019-04-01T09:31:26.668Z,10.32
2019-04-01T09:36:28.703Z,10.43
2019-04-01T09:41:30.968Z,10.43
2019-04-01T09:46:33.131Z,10.84
2019-04-01T09:51:48.021Z,10.84
2019-04-01T09:56:39.297Z,11.10
2019-04-01T10:01:41.390Z,11.14
2019-04-01T10:06:43.460Z,11.27
2019-04-01T10:11:45.589Z,11.33
2019-04-01T10:16:47.617Z,11.51
2019-04-01T10:21:49.986Z,11.82
2019-04-01T10:26:52.143Z,11.80
2019-04-01T10:31:54.233Z,11.74
2019-04-01T10:36:56.344Z,12.08
2019-04-01T10:41:58.599Z,12.35
2019-04-01T10:47:00.680Z,12.44
2019-04-01T10:52:03.033Z,12.77
2019-04-01T10:57:05.115Z,12.80
2019-04-01T11:02:07.282Z,12.82
2019-04-01T11:07:09.390Z,13.00
2019-04-01T11:12:11.638Z,13.13
2019-04-01T11:17:15.260Z,13.34
2019-04-01T11:22:17.460Z,13.43
2019-04-01T11:27:19.526Z,13.73
2019-04-01T11:32:21.615Z,13.72
2019-04-01T11:37:23.687Z,13.84
2019-04-01T11:42:25.819Z,13.97
2019-04-01T11:47:27.903Z,14.06
2019-04-01T11:52:30.008Z,14.35
2019-04-01T11:57:32.099Z,14.29
2019-04-01T12:02:34.157Z,14.67
2019-04-01T12:07:36.262Z,14.53
2019-04-01T12:12:38.412Z,14.61
2019-04-01T12:17:41.825Z,15.02
2019-04-01T12:22:46.046Z,14.98
2019-04-01T12:27:48.281Z,15.08
2019-04-01T12:32:50.391Z,15.13
2019-04-01T12:37:52.461Z,15.09
2019-04-01T12:42:54.529Z,15.28
2019-04-01T12:47:56.577Z,15.13
2019-04-01T12:52:58.646Z,15.42
2019-04-01T12:58:00.694Z,15.67
2019-04-01T13:03:02.887Z,15.94
2019-04-01T13:08:04.899Z,15.94
2019-04-01T13:13:07.016Z,16.16
2019-04-01T13:18:09.029Z,16.09
2019-04-01T13:23:11.218Z,16.30
2019-04-01T13:28:13.317Z,16.28
2019-04-01T13:33:17.053Z,16.52
2019-04-01T13:38:19.356Z,16.60
2019-04-01T13:43:21.456Z,16.50
2019-04-01T13:48:23.526Z,16.77
2019-04-01T13:53:25.566Z,16.88
2019-04-01T13:58:27.612Z,17.07
2019-04-01T14:03:29.619Z,17.26
2019-04-01T14:08:31.653Z,17.09
2019-04-01T14:13:33.722Z,17.66
2019-04-01T14:18:35.777Z,17.42
2019-04-01T14:23:37.814Z,17.71
2019-04-01T14:28:39.881Z,17.53
2019-04-01T14:33:41.956Z,17.89
2019-04-01T14:38:44.028Z,17.68
2019-04-01T14:43:46.053Z,18.08
2019-04-01T14:48:48.163Z,18.23
2019-04-01T14:53:50.277Z,18.16
2019-04-01T14:58:53.035Z,18.18
2019-04-01T15:03:55.325Z,18.38
2019-04-01T15:08:57.360Z,18.43
2019-04-01T15:14:00.160Z,18.64
2019-04-01T15:19:02.451Z,18.64
2019-04-01T15:24:04.499Z,18.66
2019-04-01T15:29:06.569Z,19.63
2019-04-01T15:34:09.358Z,25.87
2019-04-01T15:39:13.443Z,25.42
2019-04-01T15:44:15.539Z,20.44
2019-04-01T15:49:17.563Z,20.30
2019-04-01T15:54:19.614Z,19.51
2019-04-01T15:59:21.732Z,19.26
2019-04-01T16:04:23.782Z,18.81
2019-04-01T16:09:25.880Z,19.00
2019-04-01T16:14:28.054Z,18.42
2019-04-01T16:19:30.237Z,18.17
2019-04-01T16:24:32.354Z,17.79
2019-04-01T16:29:34.407Z,18.25
2019-04-01T16:34:36.480Z,17.76
2019-04-01T16:39:38.676Z,17.36
2019-04-01T16:44:40.750Z,17.00
2019-04-01T16:49:42.879Z,16.92
2019-04-01T16:54:58.332Z,16.70
2019-04-01T17:00:00.486Z,16.69
2019-04-01T17:05:02.981Z,16.60
2019-04-01T17:10:05.576Z,16.28
2019-04-01T17:15:07.873Z,16.27
2019-04-01T17:20:10.046Z,16.14
2019-04-01T17:25:13.312Z,15.99
2019-04-01T17:30:15.537Z,15.95
2019-04-01T17:35:17.706Z,15.75
2019-04-01T17:40:19.947Z,15.58
2019-04-01T17:45:38.043Z,15.41
2019-04-01T17:50:40.178Z,15.29
2019-04-01T17:55:45.385Z,15.10
2019-04-01T18:00:51.269Z,14.99
2019-04-01T18:05:53.310Z,14.85
2019-04-01T18:10:57.200Z,14.70
2019-04-01T18:15:59.347Z,14.64
2019-04-01T18:21:03.299Z,14.50
2019-04-01T18:26:05.488Z,14.48
2019-04-01T18:31:07.725Z,14.40
2019-04-01T18:36:09.800Z,14.31
2019-04-01T18:41:11.875Z,14.06
2019-04-01T18:46:13.936Z,13.86
2019-04-01T18:51:16.050Z,13.84
2019-04-01T18:56:18.129Z,13.67
2019-04-01T19:01:20.251Z,13.59
2019-04-01T19:06:22.601Z,13.48
2019-04-01T19:11:24.685Z,13.43
2019-04-01T19:16:26.705Z,13.36
2019-04-01T19:21:29.067Z,13.17
2019-04-01T19:26:31.417Z,13.06
2019-04-01T19:31:33.487Z,12.98
2019-04-01T19:36:35.610Z,12.90
2019-04-01T19:41:37.659Z,12.79
2019-04-01T19:46:39.726Z,12.75
2019-04-01T19:51:41.845Z,12.60
2019-04-01T19:56:44.006Z,12.53
2019-04-01T20:01:46.077Z,12.46
2019-04-01T20:06:48.193Z,12.37
2019-04-01T20:11:50.306Z,12.30
2019-04-01T20:16:52.456Z,12.18
2019-04-01T20:21:54.525Z,12.13
2019-04-01T20:27:05.311Z,12.07
2019-04-01T20:32:17.128Z,12.00
2019-04-01T20:37:11.663Z,11.91
2019-04-01T20:42:13.851Z,11.91
2019-04-01T20:47:16.366Z,11.89
2019-04-01T20:52:19.413Z,11.81
2019-04-01T20:57:22.263Z,11.80
2019-04-01T21:02:26.129Z,11.73
2019-04-01T21:07:31.912Z,11.45
2019-04-01T21:12:34.777Z,11.41
2019-04-01T21:17:36.848Z,11.41
2019-04-01T21:22:38.951Z,11.38
2019-04-01T21:27:41.077Z,11.31
2019-04-01T21:32:43.086Z,11.26
2019-04-01T21:37:45.143Z,11.21
2019-04-01T21:42:47.223Z,11.33
2019-04-01T21:47:49.284Z,11.40
2019-04-01T21:52:51.453Z,11.40
2019-04-01T21:57:53.506Z,11.25
2019-04-01T22:02:55.521Z,11.25
2019-04-01T22:07:57.626Z,11.19
2019-04-01T22:12:59.775Z,11.12
2019-04-01T22:18:01.833Z,11.06
2019-04-01T22:23:03.922Z,11.08
2019-04-01T22:28:06.026Z,11.00
2019-04-01T22:33:08.100Z,10.93
2019-04-01T22:38:10.167Z,11.01
2019-04-01T22:43:12.249Z,10.98
2019-04-01T22:48:14.978Z,10.83
2019-04-01T22:53:17.234Z,10.89
2019-04-01T22:58:19.609Z,10.56
2019-04-01T23:03:21.738Z,10.52
2019-04-01T23:08:24.601Z,10.29
2019-04-01T23:13:26.706Z,10.21
2019-04-01T23:18:28.778Z,10.21
2019-04-01T23:23:30.995Z,9.94
2019-04-01T23:28:33.277Z,9.94
2019-04-01T23:33:35.324Z,9.96
2019-04-01T23:38:37.487Z,9.87
2019-04-01T23:43:39.549Z,9.71
2019-04-01T23:48:42.256Z,9.85
2019-04-01T23:53:44.718Z,9.83
2019-04-01T23:58:46.806Z,9.78
